FYI305 LIRF-EDDS
Flight info
| Callsign | FYI305 |
|---|---|
| Flight time | 1h 15m |
| Altitude | 36000 |
| Route | SOVAN DCT AMTEL DCT LOMED DCT IPLUB DCT LUPOS DCT RIPDU DCT IVLOX DCT OSBUL DCT MISPO DCT TZO DCT ABESI N851 UTAVO DCT SOPER N851 ROMIR T125 REUTL REUTL5A |
| Aircraft | A320/M-SDE3FGHIRWY/LB1 |
Departure
| Time | 2026-05-04 17:42 |
|---|---|
| Airport | Rome–Fiumicino Leonardo da Vinci International Airport (LIRF) |
Arrival
| Time | 2026-05-04 18:57 |
|---|---|
| Airport | Stuttgart Airport (EDDS) |
| Time | Latitude | Longitude | Altitude | Speed | Heading |
|---|---|---|---|---|---|
| 2026-05-04 17:35 | 41.80144 | 12.26208 | 15 ft | 0 kts | 298° |
| 2026-05-04 17:36 | 41.80144 | 12.26207 | 14 ft | 0 kts | 298° |
| 2026-05-04 17:36 | 41.80163 | 12.26154 | 14 ft | 9 kts | 295° |
| 2026-05-04 17:37 | 41.80173 | 12.26126 | 14 ft | 1 kts | 295° |
| 2026-05-04 17:37 | 41.80175 | 12.26121 | 14 ft | 0 kts | 295° |
| 2026-05-04 17:37 | 41.80178 | 12.26110 | 15 ft | 7 kts | 295° |
| 2026-05-04 17:37 | 41.80234 | 12.26045 | 14 ft | 14 kts | 9° |
| 2026-05-04 17:38 | 41.80336 | 12.26109 | 14 ft | 17 kts | 23° |
| 2026-05-04 17:38 | 41.80433 | 12.26165 | 16 ft | 14 kts | 19° |
| 2026-05-04 17:38 | 41.80516 | 12.26202 | 16 ft | 11 kts | 42° |
| 2026-05-04 17:38 | 41.80544 | 12.26295 | 16 ft | 12 kts | 70° |
| 2026-05-04 17:39 | 41.80635 | 12.26622 | 17 ft | 25 kts | 69° |
| 2026-05-04 17:39 | 41.80696 | 12.26853 | 15 ft | 25 kts | 68° |
| 2026-05-04 17:39 | 41.80748 | 12.27016 | 13 ft | 13 kts | 62° |
| 2026-05-04 17:40 | 41.80821 | 12.27035 | 13 ft | 11 kts | 340° |
| 2026-05-04 17:40 | 41.80891 | 12.27000 | 13 ft | 10 kts | 340° |
| 2026-05-04 17:40 | 41.80949 | 12.26960 | 13 ft | 9 kts | 315° |
| 2026-05-04 17:40 | 41.80948 | 12.26887 | 14 ft | 6 kts | 250° |
| 2026-05-04 17:41 | 41.80947 | 12.26883 | 15 ft | 0 kts | 250° |
| 2026-05-04 17:41 | 41.80897 | 12.26701 | 13 ft | 57 kts | 249° |
| 2026-05-04 17:41 | 41.80680 | 12.25924 | 17 ft | 119 kts | 250° |
| 2026-05-04 17:41 | 41.80330 | 12.24668 | 33 ft | 166 kts | 249° |
| 2026-05-04 17:42 | 41.79948 | 12.23249 | 732 ft | 158 kts | 249° |
| 2026-05-04 17:42 | 41.79566 | 12.21870 | 1463 ft | 157 kts | 246° |
| 2026-05-04 17:42 | 41.79237 | 12.20395 | 1819 ft | 182 kts | 262° |
| 2026-05-04 17:42 | 41.79456 | 12.18626 | 2257 ft | 206 kts | 292° |
| 2026-05-04 17:43 | 41.80313 | 12.17028 | 2843 ft | 214 kts | 307° |
| 2026-05-04 17:43 | 41.81264 | 12.15445 | 3484 ft | 224 kts | 306° |
| 2026-05-04 17:43 | 41.82248 | 12.13796 | 4250 ft | 226 kts | 308° |
| 2026-05-04 17:43 | 41.83469 | 12.12385 | 4846 ft | 243 kts | 333° |
| 2026-05-04 17:44 | 41.85145 | 12.11767 | 5429 ft | 257 kts | 349° |
| 2026-05-04 17:44 | 41.86958 | 12.11357 | 6046 ft | 272 kts | 351° |
| 2026-05-04 17:44 | 41.88876 | 12.10970 | 6696 ft | 285 kts | 351° |
| 2026-05-04 17:44 | 41.90878 | 12.10573 | 7387 ft | 293 kts | 350° |
| 2026-05-04 17:45 | 41.92849 | 12.10120 | 8392 ft | 290 kts | 349° |
| 2026-05-04 17:45 | 41.94817 | 12.09620 | 9420 ft | 286 kts | 347° |
| 2026-05-04 17:45 | 41.96766 | 12.09105 | 10272 ft | 290 kts | 347° |
| 2026-05-04 17:45 | 41.98826 | 12.08586 | 10596 ft | 313 kts | 347° |
| 2026-05-04 17:46 | 42.01044 | 12.08045 | 10910 ft | 333 kts | 348° |
| 2026-05-04 17:46 | 42.03351 | 12.07494 | 11573 ft | 340 kts | 348° |
| 2026-05-04 17:46 | 42.05689 | 12.06940 | 12350 ft | 343 kts | 347° |
| 2026-05-04 17:46 | 42.08047 | 12.06382 | 13137 ft | 345 kts | 347° |
| 2026-05-04 17:47 | 42.10420 | 12.05817 | 13907 ft | 348 kts | 347° |
| 2026-05-04 17:47 | 42.12781 | 12.05251 | 14568 ft | 351 kts | 346° |
| 2026-05-04 17:47 | 42.15194 | 12.04670 | 15206 ft | 354 kts | 346° |
| 2026-05-04 17:47 | 42.17629 | 12.04082 | 15853 ft | 357 kts | 346° |
| 2026-05-04 17:48 | 42.20095 | 12.03491 | 16402 ft | 363 kts | 347° |
| 2026-05-04 17:48 | 42.22594 | 12.02917 | 17026 ft | 367 kts | 347° |
| 2026-05-04 17:48 | 42.25125 | 12.02351 | 17649 ft | 370 kts | 347° |
| 2026-05-04 17:48 | 42.27681 | 12.01787 | 18279 ft | 374 kts | 347° |
| 2026-05-04 17:49 | 42.30261 | 12.01216 | 18817 ft | 378 kts | 347° |
| 2026-05-04 17:49 | 42.32831 | 12.00645 | 19348 ft | 380 kts | 347° |
| 2026-05-04 17:49 | 42.35445 | 12.00060 | 19885 ft | 383 kts | 347° |
| 2026-05-04 17:49 | 42.38086 | 11.99465 | 20427 ft | 386 kts | 347° |
| 2026-05-04 17:50 | 42.40746 | 11.98862 | 20974 ft | 388 kts | 347° |
| 2026-05-04 17:50 | 42.43419 | 11.98256 | 21515 ft | 391 kts | 348° |
| 2026-05-04 17:50 | 42.46106 | 11.97649 | 22034 ft | 393 kts | 348° |
| 2026-05-04 17:50 | 42.48813 | 11.97039 | 22542 ft | 396 kts | 348° |
| 2026-05-04 17:51 | 42.51538 | 11.96423 | 23052 ft | 398 kts | 348° |
| 2026-05-04 17:51 | 42.54286 | 11.95803 | 23534 ft | 401 kts | 348° |
| 2026-05-04 17:51 | 42.56943 | 11.94868 | 23941 ft | 401 kts | 337° |
| 2026-05-04 17:51 | 42.59556 | 11.93528 | 24355 ft | 402 kts | 336° |
| 2026-05-04 17:52 | 42.62174 | 11.92177 | 24831 ft | 402 kts | 336° |
| 2026-05-04 17:52 | 42.64786 | 11.90822 | 25309 ft | 402 kts | 335° |
| 2026-05-04 17:52 | 42.67396 | 11.89464 | 25758 ft | 402 kts | 335° |
| 2026-05-04 17:52 | 42.70014 | 11.88100 | 26191 ft | 403 kts | 335° |
| 2026-05-04 17:53 | 42.72638 | 11.86738 | 26615 ft | 404 kts | 334° |
| 2026-05-04 17:53 | 42.75268 | 11.85372 | 27029 ft | 405 kts | 334° |
| 2026-05-04 17:53 | 42.77868 | 11.84017 | 27434 ft | 406 kts | 334° |
| 2026-05-04 17:53 | 42.80509 | 11.82640 | 27849 ft | 407 kts | 334° |
| 2026-05-04 17:54 | 42.83161 | 11.81255 | 28258 ft | 409 kts | 333° |
| 2026-05-04 17:54 | 42.85822 | 11.79867 | 28643 ft | 410 kts | 333° |
| 2026-05-04 17:54 | 42.88489 | 11.78472 | 29036 ft | 411 kts | 333° |
| 2026-05-04 17:54 | 42.91164 | 11.77074 | 29409 ft | 412 kts | 332° |
| 2026-05-04 17:55 | 42.93846 | 11.75670 | 29772 ft | 414 kts | 332° |
| 2026-05-04 17:55 | 42.96541 | 11.74262 | 30141 ft | 415 kts | 332° |
| 2026-05-04 17:55 | 42.99238 | 11.72853 | 30437 ft | 416 kts | 332° |
| 2026-05-04 17:55 | 43.01909 | 11.71456 | 30710 ft | 418 kts | 332° |
| 2026-05-04 17:56 | 43.04633 | 11.70028 | 30978 ft | 420 kts | 333° |
| 2026-05-04 17:56 | 43.07371 | 11.68587 | 31186 ft | 424 kts | 333° |
| 2026-05-04 17:56 | 43.10126 | 11.67136 | 31423 ft | 426 kts | 332° |
| 2026-05-04 17:56 | 43.12902 | 11.65673 | 31694 ft | 427 kts | 332° |
| 2026-05-04 17:57 | 43.15670 | 11.64217 | 32053 ft | 426 kts | 332° |
| 2026-05-04 17:57 | 43.18437 | 11.62764 | 32432 ft | 425 kts | 332° |
| 2026-05-04 17:57 | 43.21192 | 11.61308 | 32808 ft | 423 kts | 330° |
| 2026-05-04 17:57 | 43.23812 | 11.59565 | 33182 ft | 416 kts | 324° |
| 2026-05-04 17:58 | 43.26319 | 11.57705 | 33542 ft | 416 kts | 325° |
| 2026-05-04 17:58 | 43.28861 | 11.55817 | 33865 ft | 416 kts | 325° |
| 2026-05-04 17:58 | 43.31403 | 11.53934 | 34215 ft | 415 kts | 325° |
| 2026-05-04 17:58 | 43.33942 | 11.52052 | 34538 ft | 414 kts | 325° |
| 2026-05-04 17:59 | 43.36471 | 11.50173 | 34843 ft | 413 kts | 325° |
| 2026-05-04 17:59 | 43.38993 | 11.48295 | 35143 ft | 412 kts | 325° |
| 2026-05-04 17:59 | 43.43989 | 11.44574 | 35725 ft | 410 kts | 325° |
| 2026-05-04 18:00 | 43.46497 | 11.42708 | 36001 ft | 410 kts | 325° |
| 2026-05-04 18:00 | 43.49006 | 11.40839 | 36112 ft | 409 kts | 325° |
| 2026-05-04 18:00 | 43.51499 | 11.38986 | 36129 ft | 406 kts | 325° |
| 2026-05-04 18:01 | 43.56445 | 11.35294 | 36127 ft | 404 kts | 325° |
| 2026-05-04 18:01 | 43.61372 | 11.31593 | 36125 ft | 403 kts | 325° |
| 2026-05-04 18:02 | 43.68748 | 11.26047 | 36124 ft | 406 kts | 324° |
| 2026-05-04 18:02 | 43.73716 | 11.22312 | 36108 ft | 407 kts | 325° |
| 2026-05-04 18:03 | 43.78686 | 11.18571 | 36106 ft | 407 kts | 324° |
| 2026-05-04 18:03 | 43.83648 | 11.14809 | 36105 ft | 407 kts | 324° |
| 2026-05-04 18:04 | 43.88585 | 11.11072 | 36120 ft | 407 kts | 325° |
| 2026-05-04 18:05 | 43.96052 | 11.05414 | 36118 ft | 408 kts | 325° |
| 2026-05-04 18:05 | 44.01033 | 11.01629 | 36139 ft | 408 kts | 325° |
| 2026-05-04 18:06 | 44.08301 | 10.95639 | 36175 ft | 405 kts | 321° |
| 2026-05-04 18:06 | 44.13030 | 10.91355 | 36205 ft | 406 kts | 321° |
| 2026-05-04 18:07 | 44.17778 | 10.87089 | 36209 ft | 407 kts | 322° |
| 2026-05-04 18:07 | 44.22560 | 10.82864 | 36221 ft | 408 kts | 322° |
| 2026-05-04 18:08 | 44.27365 | 10.78644 | 36216 ft | 408 kts | 322° |
| 2026-05-04 18:08 | 44.32131 | 10.74447 | 36212 ft | 408 kts | 322° |
| 2026-05-04 18:09 | 44.41724 | 10.65939 | 36197 ft | 409 kts | 322° |
| 2026-05-04 18:10 | 44.46526 | 10.61664 | 36205 ft | 409 kts | 322° |
| 2026-05-04 18:10 | 44.51295 | 10.57416 | 36203 ft | 409 kts | 322° |
| 2026-05-04 18:11 | 44.56093 | 10.53100 | 36185 ft | 410 kts | 321° |
| 2026-05-04 18:11 | 44.60893 | 10.48749 | 36168 ft | 411 kts | 321° |
| 2026-05-04 18:12 | 44.65702 | 10.44382 | 36153 ft | 412 kts | 321° |
| 2026-05-04 18:12 | 44.70482 | 10.40033 | 36141 ft | 412 kts | 321° |
| 2026-05-04 18:13 | 44.75301 | 10.35648 | 36132 ft | 413 kts | 322° |
| 2026-05-04 18:14 | 44.82545 | 10.29024 | 36053 ft | 414 kts | 321° |
| 2026-05-04 18:14 | 44.87223 | 10.24296 | 36043 ft | 413 kts | 318° |
| 2026-05-04 18:15 | 44.96343 | 10.14450 | 36058 ft | 415 kts | 318° |
| 2026-05-04 18:16 | 45.00965 | 10.09541 | 36070 ft | 416 kts | 318° |
| 2026-05-04 18:16 | 45.05611 | 10.04638 | 36063 ft | 417 kts | 318° |
| 2026-05-04 18:17 | 45.12546 | 9.97290 | 36056 ft | 418 kts | 318° |
| 2026-05-04 18:18 | 45.19559 | 9.89823 | 36059 ft | 427 kts | 318° |
| 2026-05-04 18:18 | 45.24372 | 9.84672 | 36058 ft | 439 kts | 318° |
| 2026-05-04 18:19 | 45.31707 | 9.76804 | 36089 ft | 444 kts | 319° |
| 2026-05-04 18:19 | 45.36642 | 9.71521 | 36144 ft | 445 kts | 319° |
| 2026-05-04 18:20 | 45.39325 | 9.69279 | 36131 ft | 453 kts | 334° |
| 2026-05-04 18:20 | 45.42390 | 9.68081 | 36158 ft | 461 kts | 346° |
| 2026-05-04 18:20 | 45.48734 | 9.66538 | 36175 ft | 463 kts | 346° |
| 2026-05-04 18:21 | 45.55048 | 9.65054 | 36190 ft | 463 kts | 346° |
| 2026-05-04 18:21 | 45.58229 | 9.64301 | 36068 ft | 463 kts | 346° |
| 2026-05-04 18:21 | 45.61406 | 9.63539 | 36059 ft | 463 kts | 346° |
| 2026-05-04 18:22 | 45.67762 | 9.61994 | 36063 ft | 463 kts | 346° |
| 2026-05-04 18:22 | 45.74116 | 9.60435 | 36081 ft | 463 kts | 346° |
| 2026-05-04 18:23 | 45.80471 | 9.58887 | 36097 ft | 464 kts | 347° |
| 2026-05-04 18:23 | 45.86794 | 9.57351 | 36104 ft | 464 kts | 347° |
| 2026-05-04 18:24 | 45.93157 | 9.55800 | 36103 ft | 464 kts | 347° |
| 2026-05-04 18:24 | 45.99519 | 9.54249 | 36110 ft | 464 kts | 347° |
| 2026-05-04 18:25 | 46.05876 | 9.52685 | 36119 ft | 464 kts | 347° |
| 2026-05-04 18:25 | 46.12197 | 9.51130 | 36117 ft | 464 kts | 347° |
| 2026-05-04 18:26 | 46.18561 | 9.49559 | 36127 ft | 465 kts | 347° |
| 2026-05-04 18:26 | 46.24938 | 9.47987 | 36127 ft | 465 kts | 347° |
| 2026-05-04 18:27 | 46.31308 | 9.46411 | 36125 ft | 465 kts | 347° |
| 2026-05-04 18:27 | 46.37637 | 9.44836 | 36123 ft | 464 kts | 347° |
| 2026-05-04 18:28 | 46.44009 | 9.43255 | 36117 ft | 464 kts | 347° |
| 2026-05-04 18:28 | 46.50379 | 9.41671 | 36119 ft | 465 kts | 347° |
| 2026-05-04 18:29 | 46.56747 | 9.40066 | 36105 ft | 465 kts | 347° |
| 2026-05-04 18:29 | 46.63074 | 9.38479 | 36093 ft | 465 kts | 347° |
| 2026-05-04 18:30 | 46.72651 | 9.36080 | 36085 ft | 466 kts | 347° |
| 2026-05-04 18:31 | 46.79159 | 9.35437 | 36064 ft | 471 kts | 354° |
| 2026-05-04 18:31 | 46.85710 | 9.35091 | 36052 ft | 471 kts | 355° |
| 2026-05-04 18:32 | 46.92216 | 9.34762 | 36027 ft | 471 kts | 355° |
| 2026-05-04 18:32 | 46.98768 | 9.34414 | 36014 ft | 470 kts | 355° |
| 2026-05-04 18:33 | 47.05317 | 9.34050 | 36015 ft | 472 kts | 355° |
| 2026-05-04 18:33 | 47.11875 | 9.33692 | 36009 ft | 472 kts | 355° |
| 2026-05-04 18:34 | 47.18417 | 9.33343 | 35983 ft | 474 kts | 355° |
| 2026-05-04 18:34 | 47.25026 | 9.32994 | 35987 ft | 476 kts | 355° |
| 2026-05-04 18:35 | 47.31650 | 9.32637 | 35979 ft | 477 kts | 355° |
| 2026-05-04 18:35 | 47.38298 | 9.32272 | 35614 ft | 478 kts | 355° |
| 2026-05-04 18:35 | 47.41628 | 9.32089 | 35365 ft | 479 kts | 355° |
| 2026-05-04 18:36 | 47.44912 | 9.31906 | 35128 ft | 480 kts | 355° |
| 2026-05-04 18:36 | 47.48252 | 9.31717 | 34884 ft | 481 kts | 355° |
| 2026-05-04 18:36 | 47.51605 | 9.31528 | 34638 ft | 482 kts | 355° |
| 2026-05-04 18:36 | 47.54957 | 9.31345 | 34393 ft | 483 kts | 355° |
| 2026-05-04 18:37 | 47.58320 | 9.31166 | 34154 ft | 484 kts | 355° |
| 2026-05-04 18:37 | 47.61681 | 9.30986 | 33904 ft | 484 kts | 355° |
| 2026-05-04 18:37 | 47.65050 | 9.30806 | 33631 ft | 485 kts | 355° |
| 2026-05-04 18:37 | 47.68434 | 9.30623 | 33351 ft | 487 kts | 355° |
| 2026-05-04 18:38 | 47.71821 | 9.30434 | 33084 ft | 488 kts | 355° |
| 2026-05-04 18:38 | 47.75218 | 9.30245 | 32816 ft | 489 kts | 355° |
| 2026-05-04 18:38 | 47.78619 | 9.30059 | 32574 ft | 490 kts | 356° |
| 2026-05-04 18:38 | 47.82040 | 9.30216 | 32310 ft | 494 kts | 1° |
| 2026-05-04 18:39 | 47.85437 | 9.30477 | 31877 ft | 496 kts | 1° |
| 2026-05-04 18:39 | 47.88931 | 9.30744 | 31306 ft | 497 kts | 1° |
| 2026-05-04 18:39 | 47.92347 | 9.31005 | 30743 ft | 499 kts | 1° |
| 2026-05-04 18:39 | 47.95820 | 9.31266 | 30195 ft | 501 kts | 1° |
| 2026-05-04 18:40 | 47.99311 | 9.31525 | 29594 ft | 503 kts | 1° |
| 2026-05-04 18:40 | 48.02818 | 9.31783 | 29073 ft | 505 kts | 1° |
| 2026-05-04 18:40 | 48.06327 | 9.32045 | 28545 ft | 505 kts | 1° |
| 2026-05-04 18:40 | 48.09843 | 9.32309 | 28009 ft | 505 kts | 1° |
| 2026-05-04 18:41 | 48.13355 | 9.32577 | 27469 ft | 506 kts | 1° |
| 2026-05-04 18:41 | 48.16855 | 9.32852 | 26928 ft | 500 kts | 1° |
| 2026-05-04 18:41 | 48.20310 | 9.33234 | 26376 ft | 495 kts | 3° |
| 2026-05-04 18:41 | 48.23719 | 9.33751 | 25832 ft | 491 kts | 4° |
| 2026-05-04 18:42 | 48.27045 | 9.34346 | 25268 ft | 486 kts | 5° |
| 2026-05-04 18:42 | 48.30389 | 9.34981 | 24702 ft | 481 kts | 5° |
| 2026-05-04 18:42 | 48.33689 | 9.35598 | 24118 ft | 476 kts | 5° |
| 2026-05-04 18:42 | 48.36967 | 9.35879 | 23542 ft | 467 kts | 354° |
| 2026-05-04 18:43 | 48.40142 | 9.35134 | 22894 ft | 459 kts | 345° |
| 2026-05-04 18:43 | 48.43257 | 9.34116 | 22331 ft | 456 kts | 345° |
| 2026-05-04 18:43 | 48.46351 | 9.33112 | 21755 ft | 453 kts | 345° |
| 2026-05-04 18:43 | 48.49419 | 9.32128 | 21198 ft | 450 kts | 346° |
| 2026-05-04 18:44 | 48.52470 | 9.31160 | 20631 ft | 445 kts | 346° |
| 2026-05-04 18:44 | 48.54464 | 9.30528 | 20275 ft | 443 kts | 346° |
| 2026-05-04 18:44 | 48.58475 | 9.29817 | 19583 ft | 432 kts | 5° |
| 2026-05-04 18:44 | 48.61235 | 9.31097 | 19392 ft | 403 kts | 30° |
| 2026-05-04 18:45 | 48.63283 | 9.33731 | 19180 ft | 376 kts | 55° |
| 2026-05-04 18:45 | 48.64383 | 9.37152 | 18898 ft | 353 kts | 76° |
| 2026-05-04 18:45 | 48.65072 | 9.40677 | 18623 ft | 347 kts | 75° |
| 2026-05-04 18:45 | 48.65785 | 9.44141 | 18342 ft | 344 kts | 75° |
| 2026-05-04 18:46 | 48.66520 | 9.47570 | 18035 ft | 341 kts | 74° |
| 2026-05-04 18:46 | 48.67262 | 9.50972 | 17712 ft | 340 kts | 74° |
| 2026-05-04 18:46 | 48.68001 | 9.54355 | 17395 ft | 338 kts | 74° |
| 2026-05-04 18:46 | 48.68734 | 9.57718 | 17088 ft | 336 kts | 74° |
| 2026-05-04 18:47 | 48.69428 | 9.61088 | 16762 ft | 335 kts | 76° |
| 2026-05-04 18:47 | 48.70069 | 9.64469 | 16426 ft | 333 kts | 76° |
| 2026-05-04 18:47 | 48.70670 | 9.67768 | 15849 ft | 328 kts | 77° |
| 2026-05-04 18:47 | 48.71264 | 9.71086 | 15252 ft | 324 kts | 77° |
| 2026-05-04 18:48 | 48.71849 | 9.74361 | 14668 ft | 321 kts | 77° |
| 2026-05-04 18:48 | 48.72433 | 9.77604 | 14097 ft | 317 kts | 76° |
| 2026-05-04 18:48 | 48.73012 | 9.80810 | 13498 ft | 314 kts | 76° |
| 2026-05-04 18:48 | 48.73602 | 9.83975 | 12873 ft | 311 kts | 72° |
| 2026-05-04 18:49 | 48.74741 | 9.86704 | 12270 ft | 309 kts | 40° |
| 2026-05-04 18:49 | 48.76595 | 9.88111 | 12019 ft | 294 kts | 10° |
| 2026-05-04 18:49 | 48.78581 | 9.88026 | 11580 ft | 284 kts | 340° |
| 2026-05-04 18:49 | 48.80251 | 9.86559 | 11067 ft | 276 kts | 311° |
| 2026-05-04 18:50 | 48.81252 | 9.84159 | 10518 ft | 267 kts | 284° |
| 2026-05-04 18:50 | 48.81437 | 9.81422 | 9982 ft | 259 kts | 258° |
| 2026-05-04 18:50 | 48.80837 | 9.78927 | 9513 ft | 248 kts | 234° |
| 2026-05-04 18:50 | 48.79856 | 9.76818 | 9000 ft | 243 kts | 232° |
| 2026-05-04 18:51 | 48.78930 | 9.74721 | 8447 ft | 243 kts | 241° |
| 2026-05-04 18:51 | 48.78353 | 9.72308 | 7897 ft | 244 kts | 252° |
| 2026-05-04 18:51 | 48.77900 | 9.69822 | 7347 ft | 244 kts | 252° |
| 2026-05-04 18:51 | 48.77448 | 9.67394 | 6958 ft | 237 kts | 252° |
| 2026-05-04 18:52 | 48.77000 | 9.65019 | 6613 ft | 232 kts | 252° |
| 2026-05-04 18:52 | 48.76562 | 9.62665 | 6300 ft | 231 kts | 252° |
| 2026-05-04 18:52 | 48.76129 | 9.60330 | 5988 ft | 230 kts | 252° |
| 2026-05-04 18:52 | 48.75696 | 9.57992 | 5678 ft | 232 kts | 252° |
| 2026-05-04 18:53 | 48.75259 | 9.55642 | 5371 ft | 232 kts | 253° |
| 2026-05-04 18:53 | 48.74822 | 9.53293 | 5066 ft | 232 kts | 253° |
| 2026-05-04 18:53 | 48.74383 | 9.50935 | 4759 ft | 233 kts | 253° |
| 2026-05-04 18:53 | 48.73943 | 9.48575 | 4448 ft | 233 kts | 254° |
| 2026-05-04 18:54 | 48.73507 | 9.46240 | 4126 ft | 233 kts | 255° |
| 2026-05-04 18:54 | 48.73073 | 9.43916 | 3828 ft | 226 kts | 255° |
| 2026-05-04 18:54 | 48.72652 | 9.41669 | 3536 ft | 220 kts | 256° |
| 2026-05-04 18:54 | 48.72243 | 9.39487 | 3244 ft | 209 kts | 256° |
| 2026-05-04 18:55 | 48.71862 | 9.37463 | 2998 ft | 190 kts | 257° |
| 2026-05-04 18:55 | 48.71192 | 9.33899 | 2534 ft | 163 kts | 257° |
| 2026-05-04 18:55 | 48.70895 | 9.32319 | 2311 ft | 151 kts | 258° |
| 2026-05-04 18:56 | 48.70614 | 9.30823 | 2101 ft | 145 kts | 257° |
| 2026-05-04 18:56 | 48.70342 | 9.29378 | 1890 ft | 141 kts | 258° |
| 2026-05-04 18:56 | 48.70076 | 9.27980 | 1728 ft | 139 kts | 256° |
| 2026-05-04 18:56 | 48.69814 | 9.26564 | 1548 ft | 139 kts | 258° |
| 2026-05-04 18:57 | 48.69541 | 9.25156 | 1406 ft | 140 kts | 258° |
| 2026-05-04 18:57 | 48.69281 | 9.23748 | 1289 ft | 133 kts | 257° |
| 2026-05-04 18:57 | 48.69073 | 9.22617 | 1288 ft | 88 kts | 253° |
| 2026-05-04 18:57 | 48.68949 | 9.21987 | 1285 ft | 28 kts | 256° |
| 2026-05-04 18:58 | 48.68950 | 9.21716 | 1285 ft | 24 kts | 277° |
| 2026-05-04 18:58 | 48.68984 | 9.21482 | 1288 ft | 20 kts | 286° |
| 2026-05-04 18:58 | 48.68997 | 9.21294 | 1285 ft | 17 kts | 264° |
| 2026-05-04 18:58 | 48.68962 | 9.21117 | 1285 ft | 18 kts | 252° |
| 2026-05-04 18:59 | 48.68924 | 9.20927 | 1285 ft | 15 kts | 251° |
| 2026-05-04 18:59 | 48.68915 | 9.20886 | 1290 ft | 0 kts | 252° |
| 2026-05-04 18:59 | 48.68911 | 9.20866 | 1288 ft | 5 kts | 252° |
| 2026-05-04 19:00 | 48.68903 | 9.20820 | 1290 ft | 10 kts | 257° |
| 2026-05-04 19:00 | 48.68883 | 9.20701 | 1288 ft | 13 kts | 254° |
| 2026-05-04 19:00 | 48.68855 | 9.20562 | 1289 ft | 15 kts | 253° |
| 2026-05-04 19:00 | 48.68822 | 9.20393 | 1286 ft | 19 kts | 253° |
| 2026-05-04 19:01 | 48.68783 | 9.20190 | 1288 ft | 20 kts | 254° |
| 2026-05-04 19:01 | 48.68772 | 9.19990 | 1287 ft | 19 kts | 302° |
| 2026-05-04 19:01 | 48.68843 | 9.19887 | 1288 ft | 12 kts | 333° |
| 2026-05-04 19:01 | 48.68920 | 9.19886 | 1288 ft | 12 kts | 54° |
| 2026-05-04 19:02 | 48.68958 | 9.19973 | 1288 ft | 6 kts | 62° |
| 2026-05-04 19:02 | 48.68944 | 9.20008 | 1289 ft | 3 kts | 145° |
| 2026-05-04 19:02 | 48.68928 | 9.20017 | 1286 ft | 2 kts | 162° |
| 2026-05-04 19:02 | 48.68919 | 9.20021 | 1286 ft | 1 kts | 163° |
| 2026-05-04 19:03 | 48.68907 | 9.20026 | 1287 ft | 0 kts | 164° |